Terminal Aerodrome Forecast
Issued by NWS Midland/Odessa, TX

Home | Current Version | Previous Version | Text Only | Print | Product List | Glossary On
Versions: 1 2 3 4 5 6 7 8 9 10 11 12 13 14 15 16 17 18 19 20 21 22 23 24 25 26 27 28 29 30 31 32 33
000
FTUS44 KMAF 230500
TAFMAF
TAF
KMAF 230529Z 2306/2406 14017KT P6SM BKN021
      TEMPO 2310/2314 4SM TSRA OVC012CB
     FM231400 17018KT P6SM -SHRA OVC020
      TEMPO 2314/2318 3SM TSRA OVC010CB
     FM231800 19016KT P6SM -SHRA BKN020 OVC100
      TEMPO 2318/2322 4SM TSRA OVC015CB
     FM232200 18012KT P6SM BKN030 OVC100
      TEMPO 2322/2324 4SM TSRA OVC015CB=

USA.gov is the U.S. government's official web portal to all federal, state and local government web resources and services.